sensor_id;sensor_type;location;lat;lon;timestamp;noise_LAeq;noise_LA_min;noise_LA_max;noise_LA01;noise_LA95
71628;Laerm;59477;52.374;9.916;2024-01-30T00:00:04;44.11;40.15;51.23;;
71628;Laerm;59477;52.374;9.916;2024-01-30T00:02:04;44.19;40.74;50.85;;
71628;Laerm;59477;52.374;9.916;2024-01-30T00:04:04;44.18;40.09;48.86;;
71628;Laerm;59477;52.374;9.916;2024-01-30T00:06:05;44.21;40.51;48.10;;
71628;Laerm;59477;52.374;9.916;2024-01-30T00:08:05;43.93;39.40;50.47;;
71628;Laerm;59477;52.374;9.916;2024-01-30T00:10:05;43.64;39.13;50.63;;
71628;Laerm;59477;52.374;9.916;2024-01-30T00:12:06;42.63;38.08;47.17;;
71628;Laerm;59477;52.374;9.916;2024-01-30T00:14:25;43.15;38.11;50.60;;
71628;Laerm;59477;52.374;9.916;2024-01-30T00:16:25;45.07;39.92;53.03;;
71628;Laerm;59477;52.374;9.916;2024-01-30T00:18:25;41.55;38.45;47.71;;
71628;Laerm;59477;52.374;9.916;2024-01-30T00:20:26;44.61;38.82;53.08;;
71628;Laerm;59477;52.374;9.916;2024-01-30T00:22:26;42.80;39.20;46.54;;
71628;Laerm;59477;52.374;9.916;2024-01-30T00:24:26;43.67;38.86;48.03;;
71628;Laerm;59477;52.374;9.916;2024-01-30T00:26:26;41.36;37.91;45.42;;
71628;Laerm;59477;52.374;9.916;2024-01-30T00:28:26;41.90;38.42;45.79;;
71628;Laerm;59477;52.374;9.916;2024-01-30T00:30:45;46.34;40.74;51.56;;
71628;Laerm;59477;52.374;9.916;2024-01-30T00:33:04;43.60;40.06;49.29;;
71628;Laerm;59477;52.374;9.916;2024-01-30T00:35:23;43.28;39.78;46.84;;
71628;Laerm;59477;52.374;9.916;2024-01-30T00:37:42;43.91;39.05;54.06;;
71628;Laerm;59477;52.374;9.916;2024-01-30T00:40:01;47.12;38.95;54.36;;
71628;Laerm;59477;52.374;9.916;2024-01-30T00:42:01;43.80;40.53;48.82;;
71628;Laerm;59477;52.374;9.916;2024-01-30T00:44:20;42.88;39.30;49.81;;
71628;Laerm;59477;52.374;9.916;2024-01-30T00:46:39;41.84;38.49;46.50;;
71628;Laerm;59477;52.374;9.916;2024-01-30T00:48:39;41.30;38.13;44.23;;
71628;Laerm;59477;52.374;9.916;2024-01-30T00:50:58;41.26;38.43;44.61;;
71628;Laerm;59477;52.374;9.916;2024-01-30T00:52:58;41.93;38.77;47.10;;
71628;Laerm;59477;52.374;9.916;2024-01-30T00:55:17;46.45;38.39;56.31;;
71628;Laerm;59477;52.374;9.916;2024-01-30T00:57:17;41.86;39.18;45.47;;
71628;Laerm;59477;52.374;9.916;2024-01-30T00:59:36;41.25;37.95;44.27;;
71628;Laerm;59477;52.374;9.916;2024-01-30T01:01:55;41.40;38.54;45.25;;
71628;Laerm;59477;52.374;9.916;2024-01-30T01:04:14;41.20;37.82;48.36;;
71628;Laerm;59477;52.374;9.916;2024-01-30T01:06:14;44.22;39.21;53.17;;
71628;Laerm;59477;52.374;9.916;2024-01-30T01:08:33;44.11;40.04;50.00;;
71628;Laerm;59477;52.374;9.916;2024-01-30T01:10:33;42.02;39.13;45.82;;
71628;Laerm;59477;52.374;9.916;2024-01-30T01:12:52;43.45;39.83;47.33;;
71628;Laerm;59477;52.374;9.916;2024-01-30T01:14:52;45.02;41.65;48.56;;
71628;Laerm;59477;52.374;9.916;2024-01-30T01:17:11;44.07;40.51;48.00;;
71628;Laerm;59477;52.374;9.916;2024-01-30T01:19:11;44.98;41.02;51.02;;
71628;Laerm;59477;52.374;9.916;2024-01-30T01:21:12;43.39;39.69;47.53;;
71628;Laerm;59477;52.374;9.916;2024-01-30T01:23:12;43.26;38.95;47.98;;
71628;Laerm;59477;52.374;9.916;2024-01-30T01:25:12;41.40;38.24;45.48;;
71628;Laerm;59477;52.374;9.916;2024-01-30T01:27:12;43.17;38.57;49.01;;
71628;Laerm;59477;52.374;9.916;2024-01-30T01:29:13;44.66;38.72;51.84;;
71628;Laerm;59477;52.374;9.916;2024-01-30T01:31:31;41.49;38.39;47.41;;
71628;Laerm;59477;52.374;9.916;2024-01-30T01:33:32;42.06;39.38;45.12;;
71628;Laerm;59477;52.374;9.916;2024-01-30T01:35:33;42.18;38.57;49.17;;
71628;Laerm;59477;52.374;9.916;2024-01-30T01:37:33;44.70;39.80;54.93;;
71628;Laerm;59477;52.374;9.916;2024-01-30T01:39:33;41.76;38.45;45.21;;
71628;Laerm;59477;52.374;9.916;2024-01-30T01:41:33;44.51;40.91;48.29;;
71628;Laerm;59477;52.374;9.916;2024-01-30T01:43:33;44.38;41.24;47.53;;
71628;Laerm;59477;52.374;9.916;2024-01-30T01:45:34;46.51;42.45;51.25;;
71628;Laerm;59477;52.374;9.916;2024-01-30T01:47:53;46.66;41.95;51.83;;
71628;Laerm;59477;52.374;9.916;2024-01-30T01:49:53;44.29;41.01;49.06;;
71628;Laerm;59477;52.374;9.916;2024-01-30T01:51:54;43.95;40.50;50.59;;
71628;Laerm;59477;52.374;9.916;2024-01-30T01:53:56;45.96;41.25;53.98;;
71628;Laerm;59477;52.374;9.916;2024-01-30T01:56:16;44.28;40.09;49.95;;
71628;Laerm;59477;52.374;9.916;2024-01-30T01:58:35;44.27;40.40;52.19;;
71628;Laerm;59477;52.374;9.916;2024-01-30T02:00:55;44.71;40.25;52.76;;
71628;Laerm;59477;52.374;9.916;2024-01-30T02:02:56;46.97;41.91;52.20;;
71628;Laerm;59477;52.374;9.916;2024-01-30T02:04:57;45.28;41.75;51.10;;
71628;Laerm;59477;52.374;9.916;2024-01-30T02:06:57;44.59;41.56;49.22;;
71628;Laerm;59477;52.374;9.916;2024-01-30T02:09:16;45.41;41.30;48.76;;
71628;Laerm;59477;52.374;9.916;2024-01-30T02:11:35;44.71;41.13;49.03;;
71628;Laerm;59477;52.374;9.916;2024-01-30T02:13:35;45.86;41.81;48.72;;
71628;Laerm;59477;52.374;9.916;2024-01-30T02:15:35;45.23;41.62;49.53;;
71628;Laerm;59477;52.374;9.916;2024-01-30T02:17:36;43.52;40.13;47.84;;
71628;Laerm;59477;52.374;9.916;2024-01-30T02:19:36;44.97;41.70;48.31;;
71628;Laerm;59477;52.374;9.916;2024-01-30T02:21:36;43.48;40.23;46.97;;
71628;Laerm;59477;52.374;9.916;2024-01-30T02:23:36;44.76;40.50;49.14;;
71628;Laerm;59477;52.374;9.916;2024-01-30T02:25:56;45.74;42.18;48.75;;
71628;Laerm;59477;52.374;9.916;2024-01-30T02:28:15;46.24;42.00;49.67;;
71628;Laerm;59477;52.374;9.916;2024-01-30T02:30:15;46.40;42.51;50.58;;
71628;Laerm;59477;52.374;9.916;2024-01-30T02:32:34;45.69;41.99;49.36;;
71628;Laerm;59477;52.374;9.916;2024-01-30T02:34:34;45.15;41.25;48.71;;
71628;Laerm;59477;52.374;9.916;2024-01-30T02:36:34;45.61;42.24;49.12;;
71628;Laerm;59477;52.374;9.916;2024-01-30T02:38:35;46.23;42.24;49.26;;
71628;Laerm;59477;52.374;9.916;2024-01-30T02:40:35;46.23;42.27;50.35;;
71628;Laerm;59477;52.374;9.916;2024-01-30T02:42:54;46.52;42.36;50.60;;
71628;Laerm;59477;52.374;9.916;2024-01-30T02:45:13;46.67;43.12;52.27;;
71628;Laerm;59477;52.374;9.916;2024-01-30T02:47:13;46.83;42.74;50.50;;
71628;Laerm;59477;52.374;9.916;2024-01-30T02:49:13;47.94;43.63;52.96;;
71628;Laerm;59477;52.374;9.916;2024-01-30T02:51:32;48.34;43.83;52.35;;
71628;Laerm;59477;52.374;9.916;2024-01-30T02:53:51;49.03;44.90;52.52;;
71628;Laerm;59477;52.374;9.916;2024-01-30T02:56:10;48.68;44.61;53.11;;
71628;Laerm;59477;52.374;9.916;2024-01-30T02:58:10;48.07;43.76;53.14;;
71628;Laerm;59477;52.374;9.916;2024-01-30T03:00:10;48.13;44.16;52.79;;
71628;Laerm;59477;52.374;9.916;2024-01-30T03:02:29;47.29;43.79;51.06;;
71628;Laerm;59477;52.374;9.916;2024-01-30T03:04:30;47.23;43.43;51.77;;
71628;Laerm;59477;52.374;9.916;2024-01-30T03:06:30;48.61;44.02;53.19;;
71628;Laerm;59477;52.374;9.916;2024-01-30T03:08:30;48.61;45.28;52.50;;
71628;Laerm;59477;52.374;9.916;2024-01-30T03:10:31;49.33;46.03;52.84;;
71628;Laerm;59477;52.374;9.916;2024-01-30T03:12:49;49.19;45.63;53.64;;
71628;Laerm;59477;52.374;9.916;2024-01-30T03:14:50;49.63;45.95;53.38;;
71628;Laerm;59477;52.374;9.916;2024-01-30T03:17:08;50.06;45.72;53.08;;
71628;Laerm;59477;52.374;9.916;2024-01-30T03:19:27;49.35;44.56;53.34;;
71628;Laerm;59477;52.374;9.916;2024-01-30T03:21:27;48.56;45.09;53.21;;
71628;Laerm;59477;52.374;9.916;2024-01-30T03:23:46;48.46;44.65;52.16;;
71628;Laerm;59477;52.374;9.916;2024-01-30T03:25:47;47.16;43.82;51.37;;
71628;Laerm;59477;52.374;9.916;2024-01-30T03:27:47;46.68;43.09;50.71;;
71628;Laerm;59477;52.374;9.916;2024-01-30T03:29:47;47.02;42.05;51.27;;
71628;Laerm;59477;52.374;9.916;2024-01-30T03:31:48;47.18;43.58;51.52;;
71628;Laerm;59477;52.374;9.916;2024-01-30T03:33:48;49.45;44.40;54.67;;
71628;Laerm;59477;52.374;9.916;2024-01-30T03:35:48;48.71;43.97;53.70;;
71628;Laerm;59477;52.374;9.916;2024-01-30T03:37:48;49.27;44.98;52.91;;
71628;Laerm;59477;52.374;9.916;2024-01-30T03:40:07;50.79;46.05;54.90;;
71628;Laerm;59477;52.374;9.916;2024-01-30T03:42:08;51.15;46.73;56.46;;
71628;Laerm;59477;52.374;9.916;2024-01-30T03:44:08;51.08;47.15;56.55;;
71628;Laerm;59477;52.374;9.916;2024-01-30T03:46:08;50.38;45.90;56.54;;
71628;Laerm;59477;52.374;9.916;2024-01-30T03:48:09;50.45;46.84;54.67;;
71628;Laerm;59477;52.374;9.916;2024-01-30T03:50:09;48.87;44.54;52.56;;
71628;Laerm;59477;52.374;9.916;2024-01-30T03:52:28;47.09;43.52;51.60;;
71628;Laerm;59477;52.374;9.916;2024-01-30T03:54:46;47.01;43.39;50.81;;
71628;Laerm;59477;52.374;9.916;2024-01-30T03:56:47;46.40;42.03;51.44;;
71628;Laerm;59477;52.374;9.916;2024-01-30T03:58:47;46.77;43.03;51.05;;
71628;Laerm;59477;52.374;9.916;2024-01-30T04:00:47;47.50;43.59;51.48;;
71628;Laerm;59477;52.374;9.916;2024-01-30T04:02:47;47.84;43.49;51.80;;
71628;Laerm;59477;52.374;9.916;2024-01-30T04:04:48;48.21;44.10;52.02;;
71628;Laerm;59477;52.374;9.916;2024-01-30T04:06:48;48.35;44.41;53.27;;
71628;Laerm;59477;52.374;9.916;2024-01-30T04:08:48;47.46;42.36;51.49;;
71628;Laerm;59477;52.374;9.916;2024-01-30T04:10:48;46.99;42.91;52.33;;
71628;Laerm;59477;52.374;9.916;2024-01-30T04:12:49;49.08;44.63;53.04;;
71628;Laerm;59477;52.374;9.916;2024-01-30T04:14:49;48.93;43.16;55.94;;
71628;Laerm;59477;52.374;9.916;2024-01-30T04:16:49;48.61;44.73;52.34;;
71628;Laerm;59477;52.374;9.916;2024-01-30T04:19:07;48.97;44.23;53.91;;
71628;Laerm;59477;52.374;9.916;2024-01-30T04:21:26;47.94;43.87;52.85;;
71628;Laerm;59477;52.374;9.916;2024-01-30T04:23:45;48.42;44.71;52.70;;
71628;Laerm;59477;52.374;9.916;2024-01-30T04:26:04;48.40;44.07;52.89;;
71628;Laerm;59477;52.374;9.916;2024-01-30T04:28:05;47.50;43.54;52.08;;
71628;Laerm;59477;52.374;9.916;2024-01-30T04:30:05;48.28;43.32;53.33;;
71628;Laerm;59477;52.374;9.916;2024-01-30T04:32:24;47.13;43.58;51.32;;
71628;Laerm;59477;52.374;9.916;2024-01-30T04:34:25;48.37;43.86;60.83;;
71628;Laerm;59477;52.374;9.916;2024-01-30T04:36:25;47.47;43.61;51.56;;
71628;Laerm;59477;52.374;9.916;2024-01-30T04:38:25;48.02;44.33;52.03;;
71628;Laerm;59477;52.374;9.916;2024-01-30T04:40:25;48.99;45.50;55.23;;
71628;Laerm;59477;52.374;9.916;2024-01-30T04:42:25;49.08;44.23;54.16;;
71628;Laerm;59477;52.374;9.916;2024-01-30T04:44:44;49.39;44.68;54.33;;
71628;Laerm;59477;52.374;9.916;2024-01-30T04:46:44;48.78;44.63;53.57;;
71628;Laerm;59477;52.374;9.916;2024-01-30T04:48:45;48.48;44.47;53.49;;
71628;Laerm;59477;52.374;9.916;2024-01-30T04:50:45;48.64;44.72;52.09;;
71628;Laerm;59477;52.374;9.916;2024-01-30T04:52:45;48.36;44.64;53.02;;
71628;Laerm;59477;52.374;9.916;2024-01-30T04:55:04;48.58;45.03;62.81;;
71628;Laerm;59477;52.374;9.916;2024-01-30T04:57:05;47.78;43.25;52.50;;
71628;Laerm;59477;52.374;9.916;2024-01-30T04:59:27;48.32;45.08;52.00;;
71628;Laerm;59477;52.374;9.916;2024-01-30T05:01:28;49.10;44.31;55.09;;
71628;Laerm;59477;52.374;9.916;2024-01-30T05:03:28;49.00;44.64;54.70;;
71628;Laerm;59477;52.374;9.916;2024-01-30T05:05:28;48.80;44.77;52.34;;
71628;Laerm;59477;52.374;9.916;2024-01-30T05:07:29;49.02;44.96;52.90;;
71628;Laerm;59477;52.374;9.916;2024-01-30T05:09:29;49.02;45.74;52.77;;
71628;Laerm;59477;52.374;9.916;2024-01-30T05:11:48;50.87;46.61;58.10;;
71628;Laerm;59477;52.374;9.916;2024-01-30T05:13:48;49.47;45.76;55.72;;
71628;Laerm;59477;52.374;9.916;2024-01-30T05:15:48;49.01;45.29;58.81;;
71628;Laerm;59477;52.374;9.916;2024-01-30T05:17:48;48.65;45.35;51.82;;
71628;Laerm;59477;52.374;9.916;2024-01-30T05:19:49;49.26;46.08;52.87;;
71628;Laerm;59477;52.374;9.916;2024-01-30T05:21:49;49.81;46.61;54.04;;
71628;Laerm;59477;52.374;9.916;2024-01-30T05:23:49;50.26;46.59;53.79;;
71628;Laerm;59477;52.374;9.916;2024-01-30T05:25:50;49.67;45.99;57.49;;
71628;Laerm;59477;52.374;9.916;2024-01-30T05:27:50;50.02;46.64;54.26;;
71628;Laerm;59477;52.374;9.916;2024-01-30T05:30:09;49.79;45.65;54.17;;
71628;Laerm;59477;52.374;9.916;2024-01-30T05:32:09;49.64;45.82;52.41;;
71628;Laerm;59477;52.374;9.916;2024-01-30T05:34:29;50.66;46.57;53.97;;
71628;Laerm;59477;52.374;9.916;2024-01-30T05:36:29;50.16;46.82;54.66;;
71628;Laerm;59477;52.374;9.916;2024-01-30T05:38:48;50.13;46.57;53.81;;
71628;Laerm;59477;52.374;9.916;2024-01-30T05:41:07;50.90;46.85;55.13;;
71628;Laerm;59477;52.374;9.916;2024-01-30T05:43:08;50.55;46.45;55.19;;
71628;Laerm;59477;52.374;9.916;2024-01-30T05:45:27;50.60;46.17;54.83;;
71628;Laerm;59477;52.374;9.916;2024-01-30T05:47:46;50.27;46.34;54.30;;
71628;Laerm;59477;52.374;9.916;2024-01-30T05:50:05;51.04;46.87;55.85;;
71628;Laerm;59477;52.374;9.916;2024-01-30T05:52:24;50.80;47.32;54.20;;
71628;Laerm;59477;52.374;9.916;2024-01-30T05:54:25;49.67;46.44;52.68;;
71628;Laerm;59477;52.374;9.916;2024-01-30T05:56:43;50.01;46.63;53.54;;
71628;Laerm;59477;52.374;9.916;2024-01-30T05:59:02;49.68;46.10;53.09;;
71628;Laerm;59477;52.374;9.916;2024-01-30T06:01:06;50.06;46.99;54.11;;
71628;Laerm;59477;52.374;9.916;2024-01-30T06:03:07;50.07;46.91;53.47;;
71628;Laerm;59477;52.374;9.916;2024-01-30T06:05:07;50.07;46.66;53.44;;
71628;Laerm;59477;52.374;9.916;2024-01-30T06:07:08;50.50;46.95;54.27;;
71628;Laerm;59477;52.374;9.916;2024-01-30T06:09:08;51.35;47.71;55.90;;
71628;Laerm;59477;52.374;9.916;2024-01-30T06:11:11;51.42;47.80;55.28;;
71628;Laerm;59477;52.374;9.916;2024-01-30T06:13:12;51.23;47.09;55.48;;
71628;Laerm;59477;52.374;9.916;2024-01-30T06:15:12;50.22;46.54;54.41;;
71628;Laerm;59477;52.374;9.916;2024-01-30T06:17:31;51.24;46.50;55.69;;
71628;Laerm;59477;52.374;9.916;2024-01-30T06:19:50;51.18;47.00;60.06;;
71628;Laerm;59477;52.374;9.916;2024-01-30T06:22:09;51.10;47.96;55.39;;
71628;Laerm;59477;52.374;9.916;2024-01-30T06:24:09;51.79;47.93;56.86;;
71628;Laerm;59477;52.374;9.916;2024-01-30T06:26:09;51.64;47.01;64.48;;
71628;Laerm;59477;52.374;9.916;2024-01-30T06:28:10;52.53;47.28;70.85;;
71628;Laerm;59477;52.374;9.916;2024-01-30T06:30:10;50.79;47.76;55.06;;
71628;Laerm;59477;52.374;9.916;2024-01-30T06:32:29;51.11;47.12;57.49;;
71628;Laerm;59477;52.374;9.916;2024-01-30T06:34:34;50.84;46.93;66.69;;
71628;Laerm;59477;52.374;9.916;2024-01-30T06:36:34;50.80;47.03;56.14;;
71628;Laerm;59477;52.374;9.916;2024-01-30T06:38:34;50.54;47.43;56.92;;
71628;Laerm;59477;52.374;9.916;2024-01-30T06:40:35;50.87;47.62;54.36;;
71628;Laerm;59477;52.374;9.916;2024-01-30T06:42:35;50.43;46.57;57.16;;
71628;Laerm;59477;52.374;9.916;2024-01-30T06:44:36;50.16;46.38;55.67;;
71628;Laerm;59477;52.374;9.916;2024-01-30T06:46:54;52.26;46.83;77.01;;
71628;Laerm;59477;52.374;9.916;2024-01-30T06:48:54;50.90;46.51;57.88;;
71628;Laerm;59477;52.374;9.916;2024-01-30T06:50:55;51.64;48.29;56.22;;
71628;Laerm;59477;52.374;9.916;2024-01-30T06:52:55;50.95;47.01;58.86;;
71628;Laerm;59477;52.374;9.916;2024-01-30T06:55:14;52.00;47.83;55.92;;
71628;Laerm;59477;52.374;9.916;2024-01-30T06:57:14;51.05;47.18;55.14;;
71628;Laerm;59477;52.374;9.916;2024-01-30T06:59:33;50.44;46.49;54.13;;
71628;Laerm;59477;52.374;9.916;2024-01-30T07:01:33;50.83;46.90;54.47;;
71628;Laerm;59477;52.374;9.916;2024-01-30T07:03:33;50.25;46.42;57.01;;
71628;Laerm;59477;52.374;9.916;2024-01-30T07:05:34;51.95;47.77;62.84;;
71628;Laerm;59477;52.374;9.916;2024-01-30T07:07:34;50.27;46.43;57.52;;
71628;Laerm;59477;52.374;9.916;2024-01-30T07:09:34;49.84;45.83;61.96;;
71628;Laerm;59477;52.374;9.916;2024-01-30T07:11:36;50.39;46.13;60.61;;
71628;Laerm;59477;52.374;9.916;2024-01-30T07:13:36;49.88;46.64;57.80;;
71628;Laerm;59477;52.374;9.916;2024-01-30T07:15:36;50.94;47.05;60.03;;
71628;Laerm;59477;52.374;9.916;2024-01-30T07:17:37;60.95;47.37;71.91;;
71628;Laerm;59477;52.374;9.916;2024-01-30T07:19:37;57.52;52.61;64.15;;
71628;Laerm;59477;52.374;9.916;2024-01-30T07:21:38;55.27;48.57;60.65;;
71628;Laerm;59477;52.374;9.916;2024-01-30T07:23:40;53.72;49.26;61.41;;
71628;Laerm;59477;52.374;9.916;2024-01-30T07:25:42;51.05;46.16;57.44;;
71628;Laerm;59477;52.374;9.916;2024-01-30T07:27:42;51.71;46.39;64.11;;
71628;Laerm;59477;52.374;9.916;2024-01-30T07:29:42;49.09;45.50;58.17;;
71628;Laerm;59477;52.374;9.916;2024-01-30T07:31:42;53.09;44.96;78.27;;
71628;Laerm;59477;52.374;9.916;2024-01-30T07:33:43;49.65;45.15;61.22;;
71628;Laerm;59477;52.374;9.916;2024-01-30T07:35:43;50.01;45.15;59.12;;
71628;Laerm;59477;52.374;9.916;2024-01-30T07:37:46;50.36;46.50;53.51;;
71628;Laerm;59477;52.374;9.916;2024-01-30T07:39:47;49.61;46.47;53.04;;
71628;Laerm;59477;52.374;9.916;2024-01-30T07:41:47;49.59;46.03;55.45;;
71628;Laerm;59477;52.374;9.916;2024-01-30T07:43:47;50.06;45.59;55.53;;
71628;Laerm;59477;52.374;9.916;2024-01-30T07:45:47;50.10;46.28;58.08;;
71628;Laerm;59477;52.374;9.916;2024-01-30T07:47:48;50.04;45.81;60.10;;
71628;Laerm;59477;52.374;9.916;2024-01-30T07:49:49;50.80;46.10;58.62;;
71628;Laerm;59477;52.374;9.916;2024-01-30T07:51:49;51.04;45.74;67.08;;
71628;Laerm;59477;52.374;9.916;2024-01-30T07:53:49;50.60;46.50;56.83;;
71628;Laerm;59477;52.374;9.916;2024-01-30T07:55:50;49.38;44.39;53.72;;
71628;Laerm;59477;52.374;9.916;2024-01-30T07:57:53;49.56;45.20;53.96;;
71628;Laerm;59477;52.374;9.916;2024-01-30T07:59:53;50.11;45.69;55.91;;
71628;Laerm;59477;52.374;9.916;2024-01-30T08:01:54;49.97;46.16;54.28;;
71628;Laerm;59477;52.374;9.916;2024-01-30T08:04:12;50.02;46.20;56.23;;
71628;Laerm;59477;52.374;9.916;2024-01-30T08:06:13;50.05;45.95;61.98;;
71628;Laerm;59477;52.374;9.916;2024-01-30T08:08:13;51.87;46.94;66.51;;
71628;Laerm;59477;52.374;9.916;2024-01-30T08:10:13;50.58;44.99;57.43;;
71628;Laerm;59477;52.374;9.916;2024-01-30T08:12:14;50.31;46.27;54.33;;
71628;Laerm;59477;52.374;9.916;2024-01-30T08:14:14;51.40;46.36;57.60;;
71628;Laerm;59477;52.374;9.916;2024-01-30T08:16:14;51.41;47.03;55.70;;
71628;Laerm;59477;52.374;9.916;2024-01-30T08:18:15;50.61;46.72;57.73;;
71628;Laerm;59477;52.374;9.916;2024-01-30T08:20:15;55.64;45.84;68.02;;
71628;Laerm;59477;52.374;9.916;2024-01-30T08:22:16;52.47;46.39;66.34;;
71628;Laerm;59477;52.374;9.916;2024-01-30T08:24:35;51.21;45.28;62.87;;
71628;Laerm;59477;52.374;9.916;2024-01-30T08:26:35;49.37;46.16;55.10;;
71628;Laerm;59477;52.374;9.916;2024-01-30T08:28:54;49.88;45.49;53.90;;
71628;Laerm;59477;52.374;9.916;2024-01-30T08:31:13;51.21;46.53;61.79;;
71628;Laerm;59477;52.374;9.916;2024-01-30T08:33:13;49.89;45.86;62.12;;
71628;Laerm;59477;52.374;9.916;2024-01-30T08:35:13;49.79;44.53;65.49;;
71628;Laerm;59477;52.374;9.916;2024-01-30T08:37:15;49.38;45.31;57.93;;
71628;Laerm;59477;52.374;9.916;2024-01-30T08:39:16;49.42;44.24;58.60;;
71628;Laerm;59477;52.374;9.916;2024-01-30T08:41:16;49.37;44.47;55.48;;
71628;Laerm;59477;52.374;9.916;2024-01-30T08:43:17;48.83;44.69;55.21;;
71628;Laerm;59477;52.374;9.916;2024-01-30T08:45:17;49.48;45.22;54.21;;
71628;Laerm;59477;52.374;9.916;2024-01-30T08:47:17;49.25;44.51;69.52;;
71628;Laerm;59477;52.374;9.916;2024-01-30T08:49:19;48.73;44.95;57.00;;
71628;Laerm;59477;52.374;9.916;2024-01-30T08:51:20;49.58;45.89;55.41;;
71628;Laerm;59477;52.374;9.916;2024-01-30T08:53:20;48.92;45.00;54.52;;
71628;Laerm;59477;52.374;9.916;2024-01-30T08:55:20;47.76;43.47;53.63;;
71628;Laerm;59477;52.374;9.916;2024-01-30T08:57:21;47.22;43.32;52.32;;
71628;Laerm;59477;52.374;9.916;2024-01-30T08:59:21;48.86;43.82;53.07;;
71628;Laerm;59477;52.374;9.916;2024-01-30T09:01:21;48.76;44.05;64.80;;
71628;Laerm;59477;52.374;9.916;2024-01-30T09:03:21;50.54;44.91;60.39;;
71628;Laerm;59477;52.374;9.916;2024-01-30T09:05:22;49.79;44.76;57.54;;
71628;Laerm;59477;52.374;9.916;2024-01-30T09:07:22;50.06;45.72;61.26;;
71628;Laerm;59477;52.374;9.916;2024-01-30T09:09:22;48.73;44.36;52.83;;
71628;Laerm;59477;52.374;9.916;2024-01-30T09:11:22;48.55;44.20;54.41;;
71628;Laerm;59477;52.374;9.916;2024-01-30T09:13:23;48.13;44.20;52.83;;
71628;Laerm;59477;52.374;9.916;2024-01-30T09:15:23;47.24;44.11;50.75;;
71628;Laerm;59477;52.374;9.916;2024-01-30T09:17:23;48.65;43.92;58.00;;
71628;Laerm;59477;52.374;9.916;2024-01-30T09:19:23;49.11;43.59;59.50;;
71628;Laerm;59477;52.374;9.916;2024-01-30T09:21:24;48.02;43.03;60.85;;
71628;Laerm;59477;52.374;9.916;2024-01-30T09:23:24;47.68;42.96;55.51;;
71628;Laerm;59477;52.374;9.916;2024-01-30T09:25:24;47.74;43.76;52.03;;
71628;Laerm;59477;52.374;9.916;2024-01-30T09:27:43;53.40;44.04;73.92;;
71628;Laerm;59477;52.374;9.916;2024-01-30T09:29:43;48.54;43.91;54.85;;
71628;Laerm;59477;52.374;9.916;2024-01-30T09:31:45;49.12;45.00;56.38;;
71628;Laerm;59477;52.374;9.916;2024-01-30T09:34:03;49.11;44.61;55.42;;
71628;Laerm;59477;52.374;9.916;2024-01-30T09:36:05;48.94;44.37;53.31;;
71628;Laerm;59477;52.374;9.916;2024-01-30T09:38:05;48.01;42.61;53.64;;
71628;Laerm;59477;52.374;9.916;2024-01-30T09:40:24;47.36;43.15;53.15;;
71628;Laerm;59477;52.374;9.916;2024-01-30T09:42:34;53.87;45.92;65.82;;
71628;Laerm;59477;52.374;9.916;2024-01-30T09:44:56;48.16;44.48;59.86;;
71628;Laerm;59477;52.374;9.916;2024-01-30T09:46:59;48.87;44.60;54.66;;
71628;Laerm;59477;52.374;9.916;2024-01-30T09:49:03;48.35;43.17;61.59;;
71628;Laerm;59477;52.374;9.916;2024-01-30T09:51:23;47.83;43.21;59.25;;
71628;Laerm;59477;52.374;9.916;2024-01-30T09:53:24;46.27;42.19;50.28;;
71628;Laerm;59477;52.374;9.916;2024-01-30T09:55:25;46.55;43.03;52.23;;
71628;Laerm;59477;52.374;9.916;2024-01-30T09:57:44;46.69;42.74;53.81;;
71628;Laerm;59477;52.374;9.916;2024-01-30T10:00:04;47.57;43.13;60.30;;
71628;Laerm;59477;52.374;9.916;2024-01-30T10:02:04;49.20;43.77;58.68;;
71628;Laerm;59477;52.374;9.916;2024-01-30T10:04:04;48.08;43.45;57.54;;
71628;Laerm;59477;52.374;9.916;2024-01-30T10:06:05;47.71;42.51;58.20;;
71628;Laerm;59477;52.374;9.916;2024-01-30T10:08:06;47.37;42.88;57.07;;
71628;Laerm;59477;52.374;9.916;2024-01-30T10:10:27;45.68;41.23;52.45;;
71628;Laerm;59477;52.374;9.916;2024-01-30T10:12:27;45.55;41.64;53.15;;
71628;Laerm;59477;52.374;9.916;2024-01-30T10:14:28;46.35;42.79;58.30;;
71628;Laerm;59477;52.374;9.916;2024-01-30T10:16:47;45.87;42.74;50.82;;
71628;Laerm;59477;52.374;9.916;2024-01-30T10:18:47;45.62;41.94;59.71;;
71628;Laerm;59477;52.374;9.916;2024-01-30T10:20:47;46.47;42.50;54.30;;
71628;Laerm;59477;52.374;9.916;2024-01-30T10:22:48;46.48;41.65;64.17;;
71628;Laerm;59477;52.374;9.916;2024-01-30T10:24:49;47.35;42.75;52.41;;
71628;Laerm;59477;52.374;9.916;2024-01-30T10:26:49;47.76;42.99;60.52;;
71628;Laerm;59477;52.374;9.916;2024-01-30T10:28:49;47.93;43.31;60.12;;
71628;Laerm;59477;52.374;9.916;2024-01-30T10:30:57;49.09;43.08;60.97;;
71628;Laerm;59477;52.374;9.916;2024-01-30T10:33:17;49.20;43.99;59.31;;
71628;Laerm;59477;52.374;9.916;2024-01-30T10:35:36;56.44;43.16;71.36;;
71628;Laerm;59477;52.374;9.916;2024-01-30T10:37:36;53.23;43.04;65.60;;
71628;Laerm;59477;52.374;9.916;2024-01-30T10:39:38;48.60;43.92;53.96;;
71628;Laerm;59477;52.374;9.916;2024-01-30T10:41:44;48.64;43.26;72.83;;
71628;Laerm;59477;52.374;9.916;2024-01-30T10:43:47;47.88;43.23;53.52;;
71628;Laerm;59477;52.374;9.916;2024-01-30T10:46:18;50.30;43.47;73.10;;
71628;Laerm;59477;52.374;9.916;2024-01-30T10:48:40;50.82;42.83;73.33;;
71628;Laerm;59477;52.374;9.916;2024-01-30T10:50:43;47.10;42.46;63.31;;
71628;Laerm;59477;52.374;9.916;2024-01-30T10:53:02;45.79;41.78;58.00;;
71628;Laerm;59477;52.374;9.916;2024-01-30T10:55:04;48.64;41.79;60.80;;
71628;Laerm;59477;52.374;9.916;2024-01-30T10:57:07;45.37;41.08;56.01;;
71628;Laerm;59477;52.374;9.916;2024-01-30T10:59:10;45.59;41.14;58.67;;
71628;Laerm;59477;52.374;9.916;2024-01-30T11:01:11;50.53;42.98;64.02;;
71628;Laerm;59477;52.374;9.916;2024-01-30T11:03:11;46.44;41.90;58.11;;
71628;Laerm;59477;52.374;9.916;2024-01-30T11:05:13;48.40;40.97;63.26;;
71628;Laerm;59477;52.374;9.916;2024-01-30T11:07:13;46.63;41.47;59.04;;
71628;Laerm;59477;52.374;9.916;2024-01-30T11:09:16;48.10;41.38;61.40;;
71628;Laerm;59477;52.374;9.916;2024-01-30T11:11:17;46.33;41.70;63.68;;
71628;Laerm;59477;52.374;9.916;2024-01-30T11:13:18;51.39;42.26;71.65;;
71628;Laerm;59477;52.374;9.916;2024-01-30T11:15:19;47.50;42.47;61.24;;
71628;Laerm;59477;52.374;9.916;2024-01-30T11:17:21;48.40;42.45;64.31;;
71628;Laerm;59477;52.374;9.916;2024-01-30T11:19:30;47.31;41.88;64.89;;
71628;Laerm;59477;52.374;9.916;2024-01-30T11:21:30;45.37;40.65;54.84;;
71628;Laerm;59477;52.374;9.916;2024-01-30T11:23:30;51.85;42.74;70.42;;
71628;Laerm;59477;52.374;9.916;2024-01-30T11:25:33;57.38;41.86;73.08;;
71628;Laerm;59477;52.374;9.916;2024-01-30T11:27:34;51.40;41.84;69.21;;
71628;Laerm;59477;52.374;9.916;2024-01-30T11:29:34;45.81;40.81;58.14;;
71628;Laerm;59477;52.374;9.916;2024-01-30T11:31:35;47.86;41.55;61.38;;
71628;Laerm;59477;52.374;9.916;2024-01-30T11:33:35;52.71;42.08;66.18;;
71628;Laerm;59477;52.374;9.916;2024-01-30T11:35:36;49.17;41.87;61.85;;
71628;Laerm;59477;52.374;9.916;2024-01-30T11:37:36;44.87;41.05;52.28;;
71628;Laerm;59477;52.374;9.916;2024-01-30T11:39:38;45.56;41.68;53.46;;